Time;durP1;ratioP1;P1;durP2;ratioP2;P2;SDS_P1;SDS_P2;PMS_P1;PMS_P2;Temp;Humidity;BMP_temperature;BMP_pressure;BME280_temperature;BME280_humidity;BME280_pressure;Samples;Min_cycle;Max_cycle;Signal;HPM_P1;HPM_P2
2024/01/22 00:01:04;;;;;;;;;;;2.80;99.90;;;;;;2616127;54;19938;-72
2024/01/22 00:03:34;;;;;;;;;;;2.80;99.90;;;;;;2615253;39;20338;-72
2024/01/22 00:06:03;;;;;;;;;;;2.80;99.90;;;;;;2615535;54;19950;-72
2024/01/22 00:08:36;;;;;;;;;;;2.80;99.90;;;;;;2616389;54;19958;-73
2024/01/22 00:11:06;;;;;;;;;;;2.80;99.90;;;;;;2616148;31;20456;-72
2024/01/22 00:13:35;;;;;;;;;;;2.80;99.90;;;;;;2614595;54;20478;-72
2024/01/22 00:16:05;;;;;;;;;;;2.90;99.90;;;;;;2620306;54;19934;-73
2024/01/22 00:18:35;;;;;;;;;;;2.90;99.90;;;;;;2622407;39;20357;-73
2024/01/22 00:21:05;;;;;;;;;;;2.90;99.90;;;;;;2618734;54;19949;-71
2024/01/22 00:23:37;;;;;;;;;;;2.90;99.90;;;;;;2616543;54;19951;-72
2024/01/22 00:26:09;;;;;;;;;;;2.90;99.90;;;;;;2616149;47;19954;-73
2024/01/22 00:28:38;;;;;;;;;;;2.90;99.90;;;;;;2615338;54;19947;-72
2024/01/22 00:31:08;;;;;;;;;;;2.90;99.90;;;;;;2615992;54;19938;-72
2024/01/22 00:33:38;;;;;;;;;;;2.90;99.90;;;;;;2614998;39;20369;-71
2024/01/22 00:36:08;;;;;;;;;;;2.90;99.90;;;;;;2615687;54;19977;-73
2024/01/22 00:38:43;;;;;;;;;;;2.90;99.90;;;;;;2615730;54;19981;-72
2024/01/22 00:41:12;;;;;;;;;;;3.00;99.90;;;;;;2615856;39;20357;-73
2024/01/22 00:43:42;;;;;;;;;;;3.00;99.90;;;;;;2615333;47;19953;-73
2024/01/22 00:46:12;;;;;;;;;;;3.00;99.90;;;;;;2616420;47;19946;-73
2024/01/22 00:48:41;;;;;;;;;;;3.00;99.90;;;;;;2616206;54;19939;-73
2024/01/22 00:51:11;;;;;;;;;;;3.00;99.90;;;;;;2616294;54;20050;-72
2024/01/22 00:53:44;;;;;;;;;;;3.00;99.90;;;;;;2615825;47;19946;-72
2024/01/22 00:56:14;;;;;;;;;;;3.10;99.90;;;;;;2613997;54;19939;-72
2024/01/22 00:58:43;;;;;;;;;;;3.10;99.90;;;;;;2615735;47;19947;-72
2024/01/22 01:01:13;;;;;;;;;;;3.10;99.90;;;;;;2614380;54;20446;-73
2024/01/22 01:03:43;;;;;;;;;;;3.10;99.90;;;;;;2615634;54;19950;-72
2024/01/22 01:06:12;;;;;;;;;;;3.10;99.90;;;;;;2616129;47;19934;-72
2024/01/22 01:08:45;;;;;;;;;;;3.10;99.90;;;;;;2614756;46;19978;-72
2024/01/22 01:11:14;;;;;;;;;;;3.10;99.90;;;;;;2615129;54;19946;-73
2024/01/22 01:13:44;;;;;;;;;;;3.10;99.90;;;;;;2615601;54;20446;-73
2024/01/22 01:16:14;;;;;;;;;;;3.10;99.90;;;;;;2614637;54;20492;-72
2024/01/22 01:18:43;;;;;;;;;;;3.10;99.90;;;;;;2615150;54;19950;-72
2024/01/22 01:21:13;;;;;;;;;;;3.10;99.90;;;;;;2615696;54;19947;-72
2024/01/22 01:23:46;;;;;;;;;;;3.10;99.90;;;;;;2614949;54;19961;-73
2024/01/22 01:26:16;;;;;;;;;;;3.10;99.90;;;;;;2614689;54;20026;-72
2024/01/22 01:28:45;;;;;;;;;;;3.10;99.90;;;;;;2615703;54;19953;-73
2024/01/22 01:31:15;;;;;;;;;;;3.10;99.90;;;;;;2615315;54;20476;-72
2024/01/22 01:33:45;;;;;;;;;;;3.40;99.90;;;;;;2614228;54;19958;-72
2024/01/22 01:36:15;;;;;;;;;;;3.10;99.90;;;;;;2615351;54;19957;-72
2024/01/22 01:38:47;;;;;;;;;;;3.10;99.90;;;;;;2615067;54;19965;-72
2024/01/22 01:41:17;;;;;;;;;;;3.10;99.90;;;;;;2614473;39;20377;-71
2024/01/22 01:43:46;;;;;;;;;;;3.10;99.90;;;;;;2615013;47;20473;-72
2024/01/22 01:46:16;;;;;;;;;;;3.10;99.90;;;;;;2615190;54;20492;-73
2024/01/22 01:48:46;;;;;;;;;;;3.10;99.90;;;;;;2614718;54;19946;-72
2024/01/22 01:51:17;;;;;;;;;;;3.10;99.90;;;;;;2616132;54;19939;-72
2024/01/22 01:53:50;;;;;;;;;;;3.20;99.90;;;;;;2620129;54;19954;-72
2024/01/22 02:04:19;;;;;;;;;;;3.10;99.90;;;;;;2599061;39;20372;-77
2024/01/22 02:06:49;;;;;;;;;;;3.60;99.90;;;;;;2618240;47;19939;-77
2024/01/22 02:09:21;;;;;;;;;;;3.20;99.90;;;;;;2615569;47;20539;-77
2024/01/22 02:11:51;;;;;;;;;;;3.20;99.90;;;;;;2619691;54;19938;-77
2024/01/22 02:14:21;;;;;;;;;;;3.20;99.90;;;;;;2627792;54;19939;-76
2024/01/22 02:16:51;;;;;;;;;;;3.30;99.90;;;;;;2627433;54;19976;-77
2024/01/22 02:19:21;;;;;;;;;;;3.30;99.90;;;;;;2617634;47;20075;-78
2024/01/22 02:21:51;;;;;;;;;;;3.30;99.90;;;;;;2617922;54;19965;-79
2024/01/22 02:24:23;;;;;;;;;;;3.30;99.90;;;;;;2618022;47;20025;-75
2024/01/22 02:26:53;;;;;;;;;;;3.30;99.90;;;;;;2617341;54;19958;-77
2024/01/22 02:29:23;;;;;;;;;;;3.30;99.90;;;;;;2619359;47;19983;-77
2024/01/22 02:31:53;;;;;;;;;;;3.30;99.90;;;;;;2624078;49;19946;-77
2024/01/22 02:34:23;;;;;;;;;;;3.20;99.90;;;;;;2622837;47;19963;-78
2024/01/22 02:36:53;;;;;;;;;;;3.30;99.90;;;;;;2617933;47;19982;-77
2024/01/22 02:39:25;;;;;;;;;;;3.30;99.90;;;;;;2617913;47;20445;-76
2024/01/22 02:41:55;;;;;;;;;;;3.30;99.90;;;;;;2617228;54;19963;-75
2024/01/22 02:44:25;;;;;;;;;;;3.20;99.90;;;;;;2617636;47;19943;-77
2024/01/22 02:46:55;;;;;;;;;;;3.20;99.90;;;;;;2617520;47;19954;-79
2024/01/22 02:49:25;;;;;;;;;;;3.20;99.90;;;;;;2618567;47;20430;-78
2024/01/22 02:51:55;;;;;;;;;;;3.20;99.90;;;;;;2617075;51;19955;-78
2024/01/22 02:54:28;;;;;;;;;;;3.30;99.90;;;;;;2617335;54;19969;-77
2024/01/22 02:56:58;;;;;;;;;;;3.30;99.90;;;;;;2618032;54;19999;-75
2024/01/22 02:59:28;;;;;;;;;;;3.30;99.90;;;;;;2616404;47;19953;-75
2024/01/22 03:01:57;;;;;;;;;;;3.30;99.90;;;;;;2618903;54;19953;-75
2024/01/22 03:04:28;;;;;;;;;;;3.40;99.90;;;;;;2617276;47;19967;-75
2024/01/22 03:06:58;;;;;;;;;;;3.30;99.90;;;;;;2619399;54;19954;-76
2024/01/22 03:09:30;;;;;;;;;;;3.30;99.90;;;;;;2619144;47;19957;-75
2024/01/22 03:12:00;;;;;;;;;;;3.30;99.90;;;;;;2616750;54;19958;-76
2024/01/22 03:14:30;;;;;;;;;;;3.30;99.90;;;;;;2616459;47;19951;-76
2024/01/22 03:17:00;;;;;;;;;;;3.30;99.90;;;;;;2622603;48;19934;-75
2024/01/22 03:19:30;;;;;;;;;;;3.30;99.90;;;;;;2629155;47;19982;-76
2024/01/22 03:22:00;;;;;;;;;;;3.30;99.90;;;;;;2621151;54;19950;-76
2024/01/22 03:24:32;;;;;;;;;;;3.30;99.90;;;;;;2616844;47;19953;-75
2024/01/22 03:27:02;;;;;;;;;;;3.30;99.90;;;;;;2617969;39;20339;-77
2024/01/22 03:29:32;;;;;;;;;;;3.30;99.90;;;;;;2617340;47;19943;-75
2024/01/22 03:32:02;;;;;;;;;;;3.30;99.90;;;;;;2617275;46;19969;-76
2024/01/22 03:34:32;;;;;;;;;;;3.30;99.90;;;;;;2617294;39;20624;-75
2024/01/22 03:37:02;;;;;;;;;;;3.30;99.90;;;;;;2615895;54;19935;-76
2024/01/22 03:39:34;;;;;;;;;;;3.30;99.90;;;;;;2616697;46;19939;-74
2024/01/22 03:42:04;;;;;;;;;;;3.30;99.90;;;;;;2616250;47;19935;-74
2024/01/22 03:44:34;;;;;;;;;;;3.40;99.90;;;;;;2617138;54;19972;-75
2024/01/22 03:47:04;;;;;;;;;;;3.40;99.90;;;;;;2616996;54;19991;-75
2024/01/22 03:49:34;;;;;;;;;;;3.40;99.90;;;;;;2617646;54;19939;-75
2024/01/22 03:52:04;;;;;;;;;;;3.40;99.90;;;;;;2617248;52;19935;-74
2024/01/22 03:54:37;;;;;;;;;;;3.40;99.90;;;;;;2617986;54;19947;-75
2024/01/22 03:57:08;;;;;;;;;;;3.40;99.90;;;;;;2618487;47;19942;-75
2024/01/22 03:59:39;;;;;;;;;;;3.30;99.90;;;;;;2620220;47;19953;-74
2024/01/22 04:02:08;;;;;;;;;;;3.40;99.90;;;;;;2617683;47;19949;-75
2024/01/22 04:04:38;;;;;;;;;;;3.40;99.90;;;;;;2618519;52;19994;-75
2024/01/22 04:07:08;;;;;;;;;;;3.40;99.90;;;;;;2617820;47;19950;-75
2024/01/22 04:09:41;;;;;;;;;;;3.40;99.90;;;;;;2624740;54;19950;-76
2024/01/22 04:12:11;;;;;;;;;;;3.50;99.90;;;;;;2621407;47;19954;-76
2024/01/22 04:14:41;;;;;;;;;;;3.50;99.90;;;;;;2619187;54;19950;-75
2024/01/22 04:17:11;;;;;;;;;;;3.40;99.90;;;;;;2619916;47;19950;-76
2024/01/22 04:19:41;;;;;;;;;;;3.40;99.90;;;;;;2621084;47;19958;-76
2024/01/22 04:22:10;;;;;;;;;;;3.40;99.90;;;;;;2627897;47;19951;-75
2024/01/22 04:24:43;;;;;;;;;;;3.70;99.90;;;;;;2625212;54;19958;-77
2024/01/22 04:27:13;;;;;;;;;;;3.50;99.90;;;;;;2619023;50;19943;-75
2024/01/22 04:29:43;;;;;;;;;;;3.50;99.90;;;;;;2617263;54;19942;-75
2024/01/22 04:32:13;;;;;;;;;;;3.60;99.90;;;;;;2620488;50;19983;-74
2024/01/22 04:34:43;;;;;;;;;;;3.70;99.90;;;;;;2619893;54;20445;-74
2024/01/22 04:37:13;;;;;;;;;;;3.70;99.90;;;;;;2619308;54;19958;-75
2024/01/22 04:39:45;;;;;;;;;;;3.80;99.90;;;;;;2620101;39;20353;-75
2024/01/22 04:42:20;;;;;;;;;;;3.90;99.90;;;;;;2618635;54;20461;-75
2024/01/22 04:44:50;;;;;;;;;;;4.00;99.90;;;;;;2619113;54;19938;-75
2024/01/22 04:47:20;;;;;;;;;;;4.20;99.90;;;;;;2618816;54;19947;-76
2024/01/22 04:49:50;;;;;;;;;;;4.30;99.90;;;;;;2619120;47;19953;-76
2024/01/22 04:52:21;;;;;;;;;;;4.40;99.90;;;;;;2618332;47;19942;-77
2024/01/22 04:54:53;;;;;;;;;;;4.40;99.90;;;;;;2617040;47;19938;-78
2024/01/22 04:57:38;;;;;;;;;;;4.50;99.90;;;;;;2620250;47;19946;-81
2024/01/22 05:00:08;;;;;;;;;;;4.60;99.90;;;;;;2619695;47;19999;-79
2024/01/22 05:02:40;;;;;;;;;;;4.70;99.90;;;;;;2619868;54;19947;-78
2024/01/22 05:05:10;;;;;;;;;;;4.80;99.90;;;;;;2621232;50;19958;-76
2024/01/22 05:07:40;;;;;;;;;;;4.80;99.90;;;;;;2620736;54;19956;-78
2024/01/22 05:10:13;;;;;;;;;;;4.90;99.90;;;;;;2620268;54;19939;-77
2024/01/22 05:12:43;;;;;;;;;;;4.90;99.90;;;;;;2620479;54;20448;-79
2024/01/22 05:15:13;;;;;;;;;;;5.10;99.90;;;;;;2619863;39;20407;-77
2024/01/22 05:17:43;;;;;;;;;;;5.10;99.90;;;;;;2620091;54;19946;-78
2024/01/22 05:20:14;;;;;;;;;;;5.20;99.90;;;;;;2620086;54;20075;-77
2024/01/22 05:22:44;;;;;;;;;;;5.20;99.90;;;;;;2620699;47;19946;-77
2024/01/22 05:25:17;;;;;;;;;;;5.30;99.90;;;;;;2619961;54;20065;-79
2024/01/22 05:27:47;;;;;;;;;;;5.30;99.90;;;;;;2620142;46;19945;-77
2024/01/22 05:30:15;;;;;;;;;;;5.30;99.90;;;;;;2621135;47;19947;-78
2024/01/22 05:32:45;;;;;;;;;;;5.30;99.90;;;;;;2620665;47;19953;-79
2024/01/22 05:35:17;;;;;;;;;;;5.30;99.90;;;;;;2621246;54;20442;-79
2024/01/22 05:37:49;;;;;;;;;;;5.30;99.90;;;;;;2622330;47;19953;-76
2024/01/22 05:40:21;;;;;;;;;;;5.30;99.90;;;;;;2622132;47;19991;-78
2024/01/22 05:42:51;;;;;;;;;;;5.30;99.90;;;;;;2620158;50;19946;-78
2024/01/22 05:45:21;;;;;;;;;;;5.30;99.90;;;;;;2620354;47;20442;-78
2024/01/22 05:47:51;;;;;;;;;;;5.30;99.90;;;;;;2626310;54;19958;-78
2024/01/22 05:50:21;;;;;;;;;;;5.30;99.90;;;;;;2622309;51;19950;-78
2024/01/22 05:52:51;;;;;;;;;;;5.30;99.90;;;;;;2618310;47;19952;-76
2024/01/22 05:55:23;;;;;;;;;;;5.30;99.90;;;;;;2618523;47;19946;-76
2024/01/22 05:57:53;;;;;;;;;;;5.30;99.90;;;;;;2618816;47;19939;-76
2024/01/22 06:00:24;;;;;;;;;;;5.30;99.90;;;;;;2619441;39;20333;-76
2024/01/22 06:02:54;;;;;;;;;;;5.30;99.90;;;;;;2617126;47;19987;-77
2024/01/22 06:05:24;;;;;;;;;;;5.30;99.90;;;;;;2617884;54;19939;-78
2024/01/22 06:07:54;;;;;;;;;;;5.30;99.90;;;;;;2618372;47;19939;-76
2024/01/22 06:10:27;;;;;;;;;;;5.30;99.90;;;;;;2618073;54;19980;-76
2024/01/22 06:12:57;;;;;;;;;;;5.20;99.90;;;;;;2617671;47;19981;-77
2024/01/22 06:15:29;;;;;;;;;;;5.20;99.90;;;;;;2617580;54;19950;-76
2024/01/22 06:17:59;;;;;;;;;;;5.20;99.90;;;;;;2617157;54;20110;-76
2024/01/22 06:20:29;;;;;;;;;;;5.20;99.90;;;;;;2617486;47;19946;-75
2024/01/22 06:23:00;;;;;;;;;;;5.20;99.90;;;;;;2617060;47;19953;-79
2024/01/22 06:25:33;;;;;;;;;;;5.30;99.90;;;;;;2617746;47;19947;-76
2024/01/22 06:28:02;;;;;;;;;;;5.30;99.90;;;;;;2619335;54;19947;-77
2024/01/22 06:30:32;;;;;;;;;;;5.40;99.90;;;;;;2619415;39;20369;-80
2024/01/22 06:33:02;;;;;;;;;;;5.40;99.90;;;;;;2617723;47;19992;-79
2024/01/22 06:35:33;;;;;;;;;;;5.50;99.90;;;;;;2617747;47;19969;-76
2024/01/22 06:38:02;;;;;;;;;;;5.50;99.90;;;;;;2617625;54;19946;-80
2024/01/22 06:40:35;;;;;;;;;;;5.60;99.90;;;;;;2617560;54;19961;-77
2024/01/22 06:43:05;;;;;;;;;;;5.60;99.90;;;;;;2617494;39;20375;-78
2024/01/22 06:45:35;;;;;;;;;;;5.60;99.90;;;;;;2617430;54;20034;-78
2024/01/22 06:48:05;;;;;;;;;;;5.60;99.90;;;;;;2617788;47;19950;-76
2024/01/22 06:50:38;;;;;;;;;;;5.60;99.90;;;;;;2617541;54;19953;-80
2024/01/22 06:53:08;;;;;;;;;;;5.70;99.90;;;;;;2618020;47;19947;-79
2024/01/22 06:55:40;;;;;;;;;;;5.70;99.90;;;;;;2618138;54;19950;-76
2024/01/22 06:58:10;;;;;;;;;;;5.70;99.90;;;;;;2617400;47;19958;-81
2024/01/22 07:00:40;;;;;;;;;;;5.70;99.90;;;;;;2617007;54;20503;-77
2024/01/22 07:03:10;;;;;;;;;;;5.70;99.90;;;;;;2617826;54;19939;-78
2024/01/22 07:05:40;;;;;;;;;;;5.70;99.90;;;;;;2618950;54;19990;-79
2024/01/22 07:08:10;;;;;;;;;;;5.70;99.90;;;;;;2619110;54;19939;-79
2024/01/22 07:10:42;;;;;;;;;;;5.70;99.90;;;;;;2619096;47;19950;-79
2024/01/22 07:13:13;;;;;;;;;;;5.70;99.90;;;;;;2620458;46;19965;-79
2024/01/22 07:15:43;;;;;;;;;;;5.70;99.90;;;;;;2621146;54;19964;-78
2024/01/22 07:18:13;;;;;;;;;;;5.70;99.90;;;;;;2619838;54;19938;-76
2024/01/22 07:20:43;;;;;;;;;;;7.10;99.90;;;;;;2619608;54;20102;-77
2024/01/22 07:23:13;;;;;;;;;;;5.70;99.90;;;;;;2621110;39;20670;-76
2024/01/22 07:25:46;;;;;;;;;;;5.70;99.90;;;;;;2627083;50;19939;-76
2024/01/22 07:28:16;;;;;;;;;;;5.70;99.90;;;;;;2623148;54;19946;-77
2024/01/22 07:30:45;;;;;;;;;;;5.80;99.90;;;;;;2619179;50;19938;-78
2024/01/22 07:33:15;;;;;;;;;;;5.80;99.90;;;;;;2620194;39;20363;-75
2024/01/22 07:35:46;;;;;;;;;;;5.80;99.90;;;;;;2618807;47;19946;-72
2024/01/22 07:38:16;;;;;;;;;;;5.90;99.90;;;;;;2617896;31;20461;-72
2024/01/22 07:40:49;;;;;;;;;;;5.90;99.90;;;;;;2617362;54;20033;-76
2024/01/22 07:43:21;;;;;;;;;;;5.90;99.90;;;;;;2617544;47;19946;-75
2024/01/22 07:45:51;;;;;;;;;;;5.90;99.90;;;;;;2618701;39;20325;-76
2024/01/22 07:48:22;;;;;;;;;;;5.90;99.90;;;;;;2616650;47;19995;-75
2024/01/22 07:50:52;;;;;;;;;;;5.90;99.90;;;;;;2618157;47;20585;-76
2024/01/22 07:53:22;;;;;;;;;;;5.90;99.90;;;;;;2618343;39;20345;-77
2024/01/22 07:55:54;;;;;;;;;;;5.90;99.90;;;;;;2621539;54;19965;-76
2024/01/22 07:58:24;;;;;;;;;;;5.80;99.90;;;;;;2621691;54;19954;-77
2024/01/22 08:00:56;;;;;;;;;;;5.80;99.90;;;;;;2622113;54;19939;-78
2024/01/22 08:03:26;;;;;;;;;;;5.80;99.90;;;;;;2622553;47;19945;-76
2024/01/22 08:05:56;;;;;;;;;;;5.80;99.90;;;;;;2623586;46;19946;-75
2024/01/22 08:08:26;;;;;;;;;;;5.90;99.90;;;;;;2621809;54;19962;-76
2024/01/22 08:11:00;;;;;;;;;;;5.90;99.90;;;;;;2621663;39;20367;-76
2024/01/22 08:13:33;;;;;;;;;;;5.90;99.90;;;;;;2619681;47;20470;-76
2024/01/22 08:16:03;;;;;;;;;;;5.90;99.90;;;;;;2620066;54;19951;-76
2024/01/22 08:18:33;;;;;;;;;;;5.90;99.90;;;;;;2620306;54;19945;-76
2024/01/22 08:21:03;;;;;;;;;;;6.00;99.90;;;;;;2620405;54;19946;-76
2024/01/22 08:23:33;;;;;;;;;;;6.00;99.90;;;;;;2618453;54;19939;-77
2024/01/22 08:26:08;;;;;;;;;;;6.00;99.90;;;;;;2619637;47;19942;-77
2024/01/22 08:28:38;;;;;;;;;;;6.10;99.90;;;;;;2617872;47;20030;-76
2024/01/22 08:31:08;;;;;;;;;;;6.10;99.90;;;;;;2619826;54;19957;-76
2024/01/22 08:33:38;;;;;;;;;;;6.10;99.90;;;;;;2620988;47;20437;-76
2024/01/22 08:36:08;;;;;;;;;;;6.20;99.90;;;;;;2620875;39;20354;-75
2024/01/22 08:38:38;;;;;;;;;;;6.20;99.90;;;;;;2620275;54;19938;-75
2024/01/22 08:41:11;;;;;;;;;;;6.20;99.90;;;;;;2618457;54;19946;-75
2024/01/22 08:43:41;;;;;;;;;;;6.20;99.90;;;;;;2616937;47;19946;-75
2024/01/22 08:46:11;;;;;;;;;;;6.20;99.90;;;;;;2618600;54;19950;-77
2024/01/22 08:48:40;;;;;;;;;;;6.20;99.90;;;;;;2618501;47;19947;-76
2024/01/22 08:51:10;;;;;;;;;;;6.20;99.90;;;;;;2619285;47;19939;-76
2024/01/22 08:53:40;;;;;;;;;;;6.20;99.90;;;;;;2619839;54;19975;-76
2024/01/22 08:56:13;;;;;;;;;;;6.20;99.90;;;;;;2620019;54;19946;-76
2024/01/22 08:58:43;;;;;;;;;;;6.20;99.90;;;;;;2621450;54;20054;-80
2024/01/22 09:01:13;;;;;;;;;;;6.30;99.90;;;;;;2622446;47;20043;-80
2024/01/22 09:03:43;;;;;;;;;;;6.30;99.90;;;;;;2622518;47;20493;-76
2024/01/22 09:06:13;;;;;;;;;;;6.30;99.90;;;;;;2625352;47;19950;-77
2024/01/22 09:08:43;;;;;;;;;;;6.30;99.90;;;;;;2621777;54;20043;-77
2024/01/22 09:11:16;;;;;;;;;;;6.30;99.90;;;;;;2621889;54;19946;-78
2024/01/22 09:13:46;;;;;;;;;;;6.40;99.90;;;;;;2622467;54;19947;-79
2024/01/22 09:16:17;;;;;;;;;;;6.40;99.90;;;;;;2629115;47;19943;-75
2024/01/22 09:18:48;;;;;;;;;;;6.40;99.90;;;;;;2623177;54;19939;-78
2024/01/22 09:21:18;;;;;;;;;;;6.50;99.90;;;;;;2623144;54;19946;-79
2024/01/22 09:23:48;;;;;;;;;;;6.90;99.90;;;;;;2622643;54;19953;-79
2024/01/22 09:26:21;;;;;;;;;;;6.60;99.90;;;;;;2620988;54;19946;-78
2024/01/22 09:28:51;;;;;;;;;;;6.60;99.90;;;;;;2612731;47;19958;-77
2024/01/22 09:31:20;;;;;;;;;;;6.60;99.90;;;;;;2613147;47;19957;-77
2024/01/22 09:33:53;;;;;;;;;;;6.60;99.90;;;;;;2613651;54;19961;-76
2024/01/22 09:36:23;;;;;;;;;;;6.70;99.90;;;;;;2610960;46;20023;-78
2024/01/22 09:38:53;;;;;;;;;;;6.70;99.90;;;;;;2614900;54;19954;-80
2024/01/22 09:41:23;;;;;;;;;;;6.80;99.90;;;;;;2614874;47;19953;-79
2024/01/22 09:43:53;;;;;;;;;;;6.50;99.90;;;;;;2619235;47;19953;-80
2024/01/22 09:46:24;;;;;;;;;;;6.80;99.90;;;;;;2616751;54;19951;-79
2024/01/22 09:48:54;;;;;;;;;;;6.80;99.90;;;;;;2621309;39;20365;-79
2024/01/22 09:51:24;;;;;;;;;;;6.90;99.90;;;;;;2617220;54;19955;-79
2024/01/22 09:53:54;;;;;;;;;;;6.90;99.90;;;;;;2615956;54;19954;-79
2024/01/22 09:56:29;;;;;;;;;;;6.90;99.90;;;;;;2616847;47;19947;-79
2024/01/22 09:59:03;;;;;;;;;;;7.00;99.90;;;;;;2616377;46;19995;-76
2024/01/22 10:01:33;;;;;;;;;;;7.00;99.90;;;;;;2617856;39;20133;-80
2024/01/22 10:04:04;;;;;;;;;;;7.00;99.90;;;;;;2617424;54;20358;-78
2024/01/22 10:06:36;;;;;;;;;;;7.00;99.90;;;;;;2612961;47;20075;-80
2024/01/22 10:09:06;;;;;;;;;;;7.10;99.90;;;;;;2617593;47;19935;-79
2024/01/22 10:11:39;;;;;;;;;;;7.10;99.90;;;;;;2615158;47;19974;-80
2024/01/22 10:14:09;;;;;;;;;;;7.10;99.90;;;;;;2615709;47;19943;-80
2024/01/22 10:16:39;;;;;;;;;;;7.20;99.90;;;;;;2616635;47;19998;-81
2024/01/22 10:19:10;;;;;;;;;;;7.20;99.90;;;;;;2617781;47;20409;-80
2024/01/22 10:21:40;;;;;;;;;;;7.10;99.90;;;;;;2618471;47;19957;-80
2024/01/22 10:24:11;;;;;;;;;;;7.20;99.90;;;;;;2613201;47;19951;-80
2024/01/22 10:26:44;;;;;;;;;;;7.20;99.90;;;;;;2613593;47;19950;-81
2024/01/22 10:29:17;;;;;;;;;;;7.20;99.90;;;;;;2614988;47;19958;-80
2024/01/22 10:31:57;;;;;;;;;;;7.30;99.90;;;;;;2613740;47;19947;-80
2024/01/22 10:34:28;;;;;;;;;;;7.30;99.90;;;;;;2615287;54;19950;-82
2024/01/22 10:37:08;;;;;;;;;;;7.60;99.90;;;;;;2618746;47;20022;-80
2024/01/22 10:39:39;;;;;;;;;;;7.30;99.90;;;;;;2618529;47;19951;-81
2024/01/22 10:42:12;;;;;;;;;;;7.30;99.90;;;;;;2627474;47;19946;-81
2024/01/22 10:44:43;;;;;;;;;;;7.30;99.90;;;;;;2626646;47;19946;-83
2024/01/22 10:47:14;;;;;;;;;;;7.30;99.90;;;;;;2624952;47;20002;-83
2024/01/22 10:49:46;;;;;;;;;;;7.30;99.90;;;;;;2624177;47;19948;-80
2024/01/22 10:52:20;;;;;;;;;;;7.60;99.90;;;;;;2623480;54;19934;-79
2024/01/22 10:54:50;;;;;;;;;;;7.30;99.90;;;;;;2629272;47;19950;-79
2024/01/22 10:57:27;;;;;;;;;;;7.50;99.90;;;;;;2629656;47;19938;-82
2024/01/22 11:00:01;;;;;;;;;;;7.50;99.90;;;;;;2627854;54;19971;-81
2024/01/22 11:02:35;;;;;;;;;;;7.30;99.90;;;;;;2620889;39;20913;-80
2024/01/22 11:05:07;;;;;;;;;;;7.30;99.90;;;;;;2626380;47;19954;-81
2024/01/22 11:07:40;;;;;;;;;;;7.30;99.90;;;;;;2627119;47;19950;-81
2024/01/22 11:10:12;;;;;;;;;;;7.30;99.90;;;;;;2627191;46;19958;-82
2024/01/22 11:12:46;;;;;;;;;;;7.30;99.90;;;;;;2625247;54;19947;-82
2024/01/22 11:15:16;;;;;;;;;;;7.20;99.90;;;;;;2626250;54;19971;-81
2024/01/22 11:17:47;;;;;;;;;;;7.30;99.90;;;;;;2626218;54;19946;-80
2024/01/22 11:20:15;;;;;;;;;;;7.30;99.90;;;;;;2626190;54;19967;-81
2024/01/22 11:22:45;;;;;;;;;;;7.40;99.90;;;;;;2628254;54;19984;-81
2024/01/22 11:25:15;;;;;;;;;;;7.40;99.90;;;;;;2625854;54;19950;-80
2024/01/22 11:27:47;;;;;;;;;;;7.40;99.90;;;;;;2625355;54;19943;-80
2024/01/22 11:30:29;;;;;;;;;;;7.40;99.90;;;;;;2627542;47;19939;-81
2024/01/22 11:32:59;;;;;;;;;;;7.40;99.90;;;;;;2627206;54;19947;-80
2024/01/22 11:35:36;;;;;;;;;;;7.40;99.90;;;;;;2627738;54;19942;-79
2024/01/22 11:38:07;;;;;;;;;;;7.40;99.90;;;;;;2627065;54;19952;-81
2024/01/22 11:40:50;;;;;;;;;;;7.40;99.90;;;;;;2626172;47;19954;-80
2024/01/22 11:46:00;;;;;;;;;;;7.40;99.90;;;;;;2610211;54;19972;-74
2024/01/22 11:48:31;;;;;;;;;;;7.80;99.90;;;;;;2615668;54;20502;-75
2024/01/22 11:51:02;;;;;;;;;;;7.40;99.90;;;;;;2622236;54;19947;-75
2024/01/22 11:53:34;;;;;;;;;;;7.50;99.90;;;;;;2619632;54;19953;-73
2024/01/22 11:56:05;;;;;;;;;;;7.50;99.90;;;;;;2618281;47;19987;-73
2024/01/22 11:58:35;;;;;;;;;;;7.50;99.90;;;;;;2617019;54;20449;-74
2024/01/22 12:01:11;;;;;;;;;;;7.50;99.90;;;;;;2616872;39;20371;-73
2024/01/22 12:03:41;;;;;;;;;;;7.50;99.90;;;;;;2615414;54;20484;-77
2024/01/22 12:06:11;;;;;;;;;;;7.50;99.90;;;;;;2616593;54;20734;-74
2024/01/22 12:08:41;;;;;;;;;;;7.50;99.90;;;;;;2616721;47;19947;-73
2024/01/22 12:11:11;;;;;;;;;;;7.60;99.90;;;;;;2615735;54;19965;-74
2024/01/22 12:13:42;;;;;;;;;;;7.50;99.90;;;;;;2616224;54;19950;-74
2024/01/22 12:16:17;;;;;;;;;;;7.60;99.90;;;;;;2614618;47;19957;-73
2024/01/22 12:18:47;;;;;;;;;;;7.60;99.90;;;;;;2616836;54;19998;-74
2024/01/22 12:21:17;;;;;;;;;;;7.60;99.90;;;;;;2616340;54;20374;-74
2024/01/22 12:23:47;;;;;;;;;;;7.60;99.90;;;;;;2615548;54;19946;-75
2024/01/22 12:26:23;;;;;;;;;;;7.60;99.90;;;;;;2615085;54;20457;-74
2024/01/22 12:28:53;;;;;;;;;;;7.60;99.90;;;;;;2615956;54;19947;-73
2024/01/22 12:31:25;;;;;;;;;;;7.60;99.90;;;;;;2616903;47;19946;-72
2024/01/22 12:34:10;;;;;;;;;;;7.60;99.90;;;;;;2615461;54;19954;-72
2024/01/22 12:36:41;;;;;;;;;;;7.60;99.90;;;;;;2615321;47;19954;-75
2024/01/22 12:39:21;;;;;;;;;;;7.60;99.90;;;;;;2614427;54;20041;-72
2024/01/22 12:41:51;;;;;;;;;;;7.60;99.90;;;;;;2592593;54;19949;-70
2024/01/22 12:44:20;;;;;;;;;;;7.70;99.90;;;;;;2596510;54;19948;-74
2024/01/22 12:46:53;;;;;;;;;;;7.70;99.90;;;;;;2597577;54;19947;-72
2024/01/22 12:49:23;;;;;;;;;;;7.70;99.90;;;;;;2596404;54;21572;-72
2024/01/22 12:51:53;;;;;;;;;;;7.70;99.90;;;;;;2597590;54;19981;-73
2024/01/22 12:54:23;;;;;;;;;;;7.70;99.90;;;;;;2599661;47;19958;-72
2024/01/22 12:56:53;;;;;;;;;;;7.80;99.90;;;;;;2598614;54;20003;-73
2024/01/22 12:59:23;;;;;;;;;;;7.80;99.90;;;;;;2597659;54;20572;-72
2024/01/22 13:01:56;;;;;;;;;;;7.70;99.90;;;;;;2595640;54;19951;-72
2024/01/22 13:04:25;;;;;;;;;;;7.90;99.90;;;;;;2595109;54;19946;-74
2024/01/22 13:06:58;;;;;;;;;;;7.80;99.90;;;;;;2598047;54;19977;-72
2024/01/22 13:09:28;;;;;;;;;;;7.80;99.90;;;;;;2596576;54;19950;-72
2024/01/22 13:11:58;;;;;;;;;;;7.90;99.90;;;;;;2599413;54;19950;-72
2024/01/22 13:14:28;;;;;;;;;;;8.00;99.90;;;;;;2597014;39;20358;-73
2024/01/22 13:17:03;;;;;;;;;;;7.90;99.90;;;;;;2596579;47;20409;-73
2024/01/22 13:19:34;;;;;;;;;;;7.90;99.90;;;;;;2596555;54;19977;-73
2024/01/22 13:22:07;;;;;;;;;;;7.90;99.90;;;;;;2598017;54;19954;-71
2024/01/22 13:24:36;;;;;;;;;;;7.90;99.90;;;;;;2596235;54;19958;-71
2024/01/22 13:27:06;;;;;;;;;;;7.90;99.90;;;;;;2597639;54;19975;-73
2024/01/22 13:29:36;;;;;;;;;;;7.80;99.90;;;;;;2597361;54;19958;-72
2024/01/22 13:32:09;;;;;;;;;;;7.80;99.90;;;;;;2601841;54;19954;-71
2024/01/22 13:34:38;;;;;;;;;;;7.90;99.90;;;;;;2614884;54;19953;-72
2024/01/22 13:37:06;;;;;;;;;;;7.80;99.90;;;;;;2616391;39;20630;-72
2024/01/22 13:39:35;;;;;;;;;;;7.80;99.90;;;;;;2614355;54;19954;-73
2024/01/22 13:42:13;;;;;;;;;;;7.80;99.90;;;;;;2613626;54;19978;-75
2024/01/22 13:44:42;;;;;;;;;;;7.80;99.90;;;;;;2617606;54;19942;-72
2024/01/22 13:47:15;;;;;;;;;;;7.80;99.90;;;;;;2615659;54;19954;-75
2024/01/22 13:50:01;;;;;;;;;;;7.80;99.90;;;;;;2616768;47;19946;-73
2024/01/22 13:52:31;;;;;;;;;;;7.70;99.90;;;;;;2615592;54;19951;-75
2024/01/22 13:55:04;;;;;;;;;;;7.70;99.90;;;;;;2616360;47;19973;-74
2024/01/22 13:57:34;;;;;;;;;;;7.60;99.90;;;;;;2613318;47;20042;-78
2024/01/22 14:00:04;;;;;;;;;;;7.60;99.90;;;;;;2616581;47;19965;-78
2024/01/22 14:02:36;;;;;;;;;;;7.60;99.90;;;;;;2614941;47;19938;-78
2024/01/22 14:05:06;;;;;;;;;;;7.50;99.90;;;;;;2614725;54;19943;-73
2024/01/22 14:07:38;;;;;;;;;;;7.50;99.90;;;;;;2616015;39;20378;-74
2024/01/22 14:10:12;;;;;;;;;;;6.00;99.90;;;;;;2616917;39;20378;-74
2024/01/22 14:12:42;;;;;;;;;;;7.50;99.90;;;;;;2614935;54;20080;-73
2024/01/22 14:15:12;;;;;;;;;;;7.50;99.90;;;;;;2617168;47;20010;-72
2024/01/22 14:17:48;;;;;;;;;;;7.60;99.90;;;;;;2611446;54;19950;-73
2024/01/22 14:20:19;;;;;;;;;;;7.60;99.90;;;;;;2596330;47;19957;-72
2024/01/22 14:22:50;;;;;;;;;;;7.60;99.90;;;;;;2598228;47;20033;-74
2024/01/22 14:25:20;;;;;;;;;;;7.60;99.90;;;;;;2599129;46;20450;-73
2024/01/22 14:27:52;;;;;;;;;;;7.70;99.90;;;;;;2599252;54;19964;-74
2024/01/22 14:30:22;;;;;;;;;;;7.70;99.90;;;;;;2599887;54;20423;-72
2024/01/22 14:32:54;;;;;;;;;;;7.80;99.90;;;;;;2599822;54;19962;-73
2024/01/22 14:35:25;;;;;;;;;;;7.70;99.90;;;;;;2597905;54;19989;-72
2024/01/22 14:37:54;;;;;;;;;;;7.70;99.90;;;;;;2598413;47;19985;-73
2024/01/22 14:40:24;;;;;;;;;;;7.90;99.90;;;;;;2613272;54;19945;-73
2024/01/22 14:42:54;;;;;;;;;;;7.90;99.90;;;;;;2618435;54;20434;-72
2024/01/22 14:45:24;;;;;;;;;;;7.90;99.90;;;;;;2619176;54;19947;-73
2024/01/22 14:47:56;;;;;;;;;;;8.00;99.90;;;;;;2617695;54;19947;-72
2024/01/22 14:50:26;;;;;;;;;;;8.00;99.90;;;;;;2617929;54;19995;-73
2024/01/22 14:52:56;;;;;;;;;;;8.10;99.90;;;;;;2617713;54;19949;-74
2024/01/22 14:55:26;;;;;;;;;;;8.10;99.90;;;;;;2618427;54;19953;-72
2024/01/22 14:57:56;;;;;;;;;;;8.10;99.90;;;;;;2618160;39;20740;-73
2024/01/22 15:00:25;;;;;;;;;;;8.20;99.90;;;;;;2617284;47;19935;-74
2024/01/22 15:02:58;;;;;;;;;;;8.20;99.90;;;;;;2618972;46;19935;-74